Time;durP1;ratioP1;P1;durP2;ratioP2;P2;SDS_P1;SDS_P2;PMS_P1;PMS_P2;Temp;Humidity;BMP_temperature;BMP_pressure;BME280_temperature;BME280_humidity;BME280_pressure;Samples;Min_cycle;Max_cycle;Signal;HPM_P1;HPM_P2
2021/07/16 00:02:09;;;;;;;16.33;8.97;;;;;;;;;;3601256;39;20406;-82
2021/07/16 00:04:36;;;;;;;15.73;9.47;;;;;;;;;;3609975;39;20406;-82
2021/07/16 00:07:02;;;;;;;13.43;10.20;;;;;;;;;;3607433;39;20580;-82
2021/07/16 00:09:28;;;;;;;12.33;9.80;;;;;;;;;;3599973;39;20692;-82
2021/07/16 00:11:55;;;;;;;11.93;9.77;;;;;;;;;;3609571;39;20422;-82
2021/07/16 00:14:21;;;;;;;16.17;9.70;;;;;;;;;;3597012;39;20414;-82
2021/07/16 00:16:47;;;;;;;11.30;8.23;;;;;;;;;;3600061;39;20442;-82
2021/07/16 00:19:13;;;;;;;19.10;9.67;;;;;;;;;;3598337;39;20404;-82
2021/07/16 00:21:39;;;;;;;13.93;9.30;;;;;;;;;;3607488;39;20415;-81
2021/07/16 00:24:06;;;;;;;13.37;8.80;;;;;;;;;;3609408;39;20406;-82
2021/07/16 00:26:32;;;;;;;12.63;8.97;;;;;;;;;;3591959;39;20422;-82
2021/07/16 00:28:58;;;;;;;11.63;9.80;;;;;;;;;;3592405;39;20378;-81
2021/07/16 00:31:26;;;;;;;14.83;8.77;;;;;;;;;;3593537;39;20406;-82
2021/07/16 00:33:52;;;;;;;17.23;8.43;;;;;;;;;;3610858;39;20402;-82
2021/07/16 00:36:19;;;;;;;12.40;9.47;;;;;;;;;;3598226;39;20418;-82
2021/07/16 00:38:46;;;;;;;18.27;9.73;;;;;;;;;;3606575;39;20556;-82
2021/07/16 00:41:12;;;;;;;13.97;8.90;;;;;;;;;;3608799;39;20857;-82
2021/07/16 00:43:38;;;;;;;14.83;8.90;;;;;;;;;;3609540;39;20401;-82
2021/07/16 00:46:04;;;;;;;14.63;9.00;;;;;;;;;;3600132;39;20424;-83
2021/07/16 00:48:30;;;;;;;16.20;9.23;;;;;;;;;;3594464;39;20459;-82
2021/07/16 00:50:58;;;;;;;17.10;8.40;;;;;;;;;;3599116;39;20473;-82
2021/07/16 00:53:24;;;;;;;25.70;9.30;;;;;;;;;;3598848;39;20492;-82
2021/07/16 00:55:50;;;;;;;12.43;7.63;;;;;;;;;;3601418;39;20522;-82
2021/07/16 00:58:17;;;;;;;18.13;9.57;;;;;;;;;;3601111;39;20394;-83
2021/07/16 01:00:44;;;;;;;11.93;8.23;;;;;;;;;;3600063;39;20441;-82
2021/07/16 01:03:11;;;;;;;18.90;10.90;;;;;;;;;;3600396;39;20406;-82
2021/07/16 01:05:39;;;;;;;16.80;9.13;;;;;;;;;;3599838;39;20537;-82
2021/07/16 01:08:05;;;;;;;15.03;8.07;;;;;;;;;;3600140;39;20406;-82
2021/07/16 01:10:32;;;;;;;13.47;8.20;;;;;;;;;;3599810;39;20413;-82
2021/07/16 01:12:59;;;;;;;13.03;8.90;;;;;;;;;;3599727;39;20425;-82
2021/07/16 01:15:27;;;;;;;12.77;8.03;;;;;;;;;;3598377;39;20421;-81
2021/07/16 01:17:54;;;;;;;14.13;8.80;;;;;;;;;;3608359;39;20453;-81
2021/07/16 01:20:25;;;;;;;11.10;8.23;;;;;;;;;;3598928;39;20429;-82
2021/07/16 01:22:52;;;;;;;11.30;8.27;;;;;;;;;;3598859;39;20406;-82
2021/07/16 01:25:22;;;;;;;16.50;8.33;;;;;;;;;;3584792;39;20463;-82
2021/07/16 01:27:52;;;;;;;15.63;8.57;;;;;;;;;;3609527;39;20502;-82
2021/07/16 01:30:20;;;;;;;16.70;8.30;;;;;;;;;;3607770;39;20423;-82
2021/07/16 01:32:47;;;;;;;17.73;9.13;;;;;;;;;;3599428;39;20426;-82
2021/07/16 01:35:14;;;;;;;14.60;10.10;;;;;;;;;;3598573;39;20443;-82
2021/07/16 01:37:41;;;;;;;13.90;9.90;;;;;;;;;;3608965;39;20877;-82
2021/07/16 01:40:09;;;;;;;11.67;9.40;;;;;;;;;;3592171;39;20844;-82
2021/07/16 01:42:40;;;;;;;15.43;8.90;;;;;;;;;;3607895;39;20410;-82
2021/07/16 01:45:10;;;;;;;17.43;10.60;;;;;;;;;;3599893;39;20433;-82
2021/07/16 01:47:38;;;;;;;13.43;9.53;;;;;;;;;;3598927;39;20395;-82
2021/07/16 01:50:06;;;;;;;15.77;9.13;;;;;;;;;;3599159;39;20406;-82
2021/07/16 01:52:33;;;;;;;13.70;9.20;;;;;;;;;;3598474;39;20410;-82
2021/07/16 01:54:59;;;;;;;18.60;9.50;;;;;;;;;;3590285;39;20904;-81
2021/07/16 01:57:25;;;;;;;13.20;8.70;;;;;;;;;;3601817;39;20480;-81
2021/07/16 01:59:51;;;;;;;13.97;8.67;;;;;;;;;;3599106;39;20450;-81
2021/07/16 02:02:17;;;;;;;15.13;8.80;;;;;;;;;;3602265;39;20452;-81
2021/07/16 02:04:43;;;;;;;16.47;8.97;;;;;;;;;;3600356;39;20503;-81
2021/07/16 02:07:09;;;;;;;12.17;10.50;;;;;;;;;;3591399;39;20557;-81
2021/07/16 02:09:36;;;;;;;19.17;11.07;;;;;;;;;;3599896;39;20430;-83
2021/07/16 02:12:03;;;;;;;19.70;11.50;;;;;;;;;;3600225;39;20446;-82
2021/07/16 02:14:29;;;;;;;16.83;10.83;;;;;;;;;;3607244;39;20387;-81
2021/07/16 02:16:57;;;;;;;23.53;12.17;;;;;;;;;;3608813;39;20390;-80
2021/07/16 02:19:24;;;;;;;18.30;10.43;;;;;;;;;;3591599;39;20414;-81
2021/07/16 02:21:50;;;;;;;15.53;10.90;;;;;;;;;;3608540;39;20405;-81
2021/07/16 02:24:19;;;;;;;22.50;10.93;;;;;;;;;;3608597;39;20763;-80
2021/07/16 02:26:45;;;;;;;14.30;10.47;;;;;;;;;;3606554;39;20395;-81
2021/07/16 02:29:13;;;;;;;18.10;11.70;;;;;;;;;;3607293;39;20406;-81
2021/07/16 02:31:39;;;;;;;21.20;12.23;;;;;;;;;;3600035;39;20486;-81
2021/07/16 02:34:05;;;;;;;18.87;12.30;;;;;;;;;;3591223;39;21366;-80
2021/07/16 02:36:33;;;;;;;16.57;10.20;;;;;;;;;;3599116;39;20382;-80
2021/07/16 02:38:59;;;;;;;21.33;11.13;;;;;;;;;;3607160;39;20429;-81
2021/07/16 02:41:25;;;;;;;20.60;11.23;;;;;;;;;;3600957;39;20966;-81
2021/07/16 02:43:52;;;;;;;15.50;10.50;;;;;;;;;;3589814;39;20807;-81
2021/07/16 02:46:25;;;;;;;19.37;11.33;;;;;;;;;;3609013;39;20494;-81
2021/07/16 02:48:51;;;;;;;19.67;8.97;;;;;;;;;;3602862;39;20430;-81
2021/07/16 02:51:17;;;;;;;11.83;8.53;;;;;;;;;;3610050;39;20545;-81
2021/07/16 02:53:44;;;;;;;12.47;9.50;;;;;;;;;;3611072;39;21233;-81
2021/07/16 02:56:11;;;;;;;24.93;10.23;;;;;;;;;;3609490;39;20844;-81
2021/07/16 02:58:37;;;;;;;16.97;9.60;;;;;;;;;;3589986;39;20413;-81
2021/07/16 03:01:03;;;;;;;13.97;9.37;;;;;;;;;;3601745;39;21035;-81
2021/07/16 03:03:30;;;;;;;18.80;9.83;;;;;;;;;;3601447;39;20417;-81
2021/07/16 03:05:56;;;;;;;17.63;9.57;;;;;;;;;;3609634;39;20431;-81
2021/07/16 03:08:22;;;;;;;13.60;8.93;;;;;;;;;;3593796;39;20467;-82
2021/07/16 03:10:48;;;;;;;13.40;10.13;;;;;;;;;;3608233;39;20418;-81
2021/07/16 03:13:17;;;;;;;13.43;9.73;;;;;;;;;;3609947;39;20414;-81
2021/07/16 03:15:43;;;;;;;16.50;10.73;;;;;;;;;;3599613;39;20446;-81
2021/07/16 03:18:11;;;;;;;15.03;9.20;;;;;;;;;;3600188;39;20409;-81
2021/07/16 03:20:41;;;;;;;11.10;10.00;;;;;;;;;;3598406;39;20419;-81
2021/07/16 03:23:08;;;;;;;17.87;10.37;;;;;;;;;;3610774;39;20410;-81
2021/07/16 03:25:35;;;;;;;17.03;9.70;;;;;;;;;;3601038;39;20436;-81
2021/07/16 03:28:03;;;;;;;15.20;11.13;;;;;;;;;;3609491;39;20390;-81
2021/07/16 03:30:29;;;;;;;16.20;10.63;;;;;;;;;;3600874;39;20406;-81
2021/07/16 03:32:57;;;;;;;15.07;9.77;;;;;;;;;;3608460;39;20402;-81
2021/07/16 03:35:24;;;;;;;16.50;10.50;;;;;;;;;;3600309;39;20544;-81
2021/07/16 03:37:52;;;;;;;24.97;11.73;;;;;;;;;;3592614;39;20466;-81
2021/07/16 03:40:21;;;;;;;16.70;10.00;;;;;;;;;;3603865;39;20415;-82
2021/07/16 03:42:47;;;;;;;10.87;9.87;;;;;;;;;;3600670;39;20444;-81
2021/07/16 03:45:15;;;;;;;17.53;11.13;;;;;;;;;;3606395;39;20421;-81
2021/07/16 03:47:44;;;;;;;16.73;11.00;;;;;;;;;;3602004;39;20680;-82
2021/07/16 03:50:14;;;;;;;19.30;11.30;;;;;;;;;;3598639;39;20410;-82
2021/07/16 03:52:40;;;;;;;14.73;10.00;;;;;;;;;;3592738;39;21488;-82
2021/07/16 03:55:09;;;;;;;15.13;10.57;;;;;;;;;;3593142;39;20454;-82
2021/07/16 03:57:36;;;;;;;14.63;10.60;;;;;;;;;;3609111;39;20410;-82
2021/07/16 04:00:16;;;;;;;16.87;10.47;;;;;;;;;;3609306;39;20409;-83
2021/07/16 04:02:43;;;;;;;13.83;10.07;;;;;;;;;;3609361;39;20462;-83
2021/07/16 04:05:10;;;;;;;15.90;10.27;;;;;;;;;;3601109;39;20410;-81
2021/07/16 04:07:41;;;;;;;21.27;11.03;;;;;;;;;;3608144;39;20478;-82
2021/07/16 04:10:08;;;;;;;10.70;9.13;;;;;;;;;;3609500;39;20449;-82
2021/07/16 04:12:35;;;;;;;13.03;11.53;;;;;;;;;;3593715;39;20422;-83
2021/07/16 04:15:03;;;;;;;13.57;7.93;;;;;;;;;;3592978;39;20409;-82
2021/07/16 04:17:32;;;;;;;11.43;9.27;;;;;;;;;;3608954;39;20406;-82
2021/07/16 04:20:04;;;;;;;12.90;8.30;;;;;;;;;;3599537;39;20416;-82
2021/07/16 04:22:30;;;;;;;15.73;9.77;;;;;;;;;;3608145;39;20530;-82
2021/07/16 04:24:59;;;;;;;17.80;10.37;;;;;;;;;;3592570;39;20771;-82
2021/07/16 04:27:25;;;;;;;12.87;8.50;;;;;;;;;;3610308;39;21033;-83
2021/07/16 04:29:52;;;;;;;9.83;8.73;;;;;;;;;;3608799;39;20402;-82
2021/07/16 04:32:19;;;;;;;9.63;7.97;;;;;;;;;;3591693;39;21593;-83
2021/07/16 04:34:45;;;;;;;13.60;8.30;;;;;;;;;;3609749;39;20390;-82
2021/07/16 04:37:11;;;;;;;12.53;7.80;;;;;;;;;;3608693;39;20407;-82
2021/07/16 04:39:38;;;;;;;9.50;7.17;;;;;;;;;;3593545;39;20410;-82
2021/07/16 04:42:05;;;;;;;9.63;8.13;;;;;;;;;;3600999;39;20438;-82
2021/07/16 04:44:31;;;;;;;9.63;8.10;;;;;;;;;;3600754;39;20403;-82
2021/07/16 04:46:59;;;;;;;11.33;8.37;;;;;;;;;;3602881;39;20403;-82
2021/07/16 04:49:25;;;;;;;10.37;7.47;;;;;;;;;;3608742;39;20458;-82
2021/07/16 04:51:52;;;;;;;11.40;8.33;;;;;;;;;;3601543;39;20703;-82
2021/07/16 04:54:19;;;;;;;15.23;9.37;;;;;;;;;;3598800;39;20394;-81
2021/07/16 04:56:45;;;;;;;13.20;8.80;;;;;;;;;;3597551;39;20465;-81
2021/07/16 04:59:12;;;;;;;9.03;7.53;;;;;;;;;;3609702;39;20417;-82
2021/07/16 05:01:39;;;;;;;10.70;7.90;;;;;;;;;;3609707;39;20402;-81
2021/07/16 05:04:05;;;;;;;19.10;8.90;;;;;;;;;;3590893;39;20448;-82
2021/07/16 05:06:31;;;;;;;10.60;7.50;;;;;;;;;;3607812;39;20816;-82
2021/07/16 05:08:57;;;;;;;10.33;8.37;;;;;;;;;;3594268;39;20848;-82
2021/07/16 05:11:24;;;;;;;11.57;8.13;;;;;;;;;;3592912;39;21230;-82
2021/07/16 05:13:50;;;;;;;13.40;8.40;;;;;;;;;;3609409;39;20799;-82
2021/07/16 05:16:17;;;;;;;10.80;7.70;;;;;;;;;;3609640;39;20512;-81
2021/07/16 05:18:44;;;;;;;11.23;7.60;;;;;;;;;;3608171;39;20414;-81
2021/07/16 05:21:12;;;;;;;17.27;9.00;;;;;;;;;;3607592;39;20402;-81
2021/07/16 05:23:39;;;;;;;13.10;8.33;;;;;;;;;;3600304;39;20395;-81
2021/07/16 05:26:05;;;;;;;13.40;8.50;;;;;;;;;;3592790;39;20405;-81
2021/07/16 05:28:31;;;;;;;14.90;9.30;;;;;;;;;;3608495;39;20495;-81
2021/07/16 05:30:57;;;;;;;13.40;10.07;;;;;;;;;;3596240;39;20440;-82
2021/07/16 05:33:24;;;;;;;11.33;9.10;;;;;;;;;;3599314;39;20406;-81
2021/07/16 05:35:50;;;;;;;13.30;10.90;;;;;;;;;;3608905;39;20453;-82
2021/07/16 05:38:17;;;;;;;13.57;10.50;;;;;;;;;;3594034;39;20394;-81
2021/07/16 05:40:43;;;;;;;23.90;11.77;;;;;;;;;;3590697;39;20863;-81
2021/07/16 05:43:13;;;;;;;29.13;12.80;;;;;;;;;;3600758;39;21099;-81
2021/07/16 05:45:40;;;;;;;19.17;12.07;;;;;;;;;;3601366;39;20394;-81
2021/07/16 05:48:09;;;;;;;16.50;10.30;;;;;;;;;;3598838;39;22343;-81
2021/07/16 05:50:37;;;;;;;16.30;11.37;;;;;;;;;;3593017;39;20561;-81
2021/07/16 05:53:03;;;;;;;22.87;12.50;;;;;;;;;;3600222;39;20386;-81
2021/07/16 05:55:29;;;;;;;20.33;11.63;;;;;;;;;;3609664;39;20848;-80
2021/07/16 05:58:04;;;;;;;19.93;11.80;;;;;;;;;;3607456;39;20450;-79
2021/07/16 06:00:37;;;;;;;25.83;11.30;;;;;;;;;;3592902;39;20416;-82
2021/07/16 06:03:10;;;;;;;17.90;10.57;;;;;;;;;;3589878;39;20417;-81
2021/07/16 06:06:15;;;;;;;25.07;12.73;;;;;;;;;;3601332;39;20410;-82
2021/07/16 06:09:20;;;;;;;18.03;11.70;;;;;;;;;;3558099;39;20762;-82
2021/07/16 06:12:18;;;;;;;21.00;11.97;;;;;;;;;;3557369;40;20441;-81
2021/07/16 06:14:44;;;;;;;17.47;10.23;;;;;;;;;;3565860;40;21188;-80
2021/07/16 06:17:11;;;;;;;20.13;10.47;;;;;;;;;;3568334;40;22474;-80
2021/07/16 06:19:37;;;;;;;19.53;11.77;;;;;;;;;;3559751;40;20432;-80
2021/07/16 06:22:03;;;;;;;22.60;12.33;;;;;;;;;;3563072;40;20416;-80
2021/07/16 06:24:30;;;;;;;20.60;11.30;;;;;;;;;;3568043;40;20516;-79
2021/07/16 06:26:56;;;;;;;34.60;12.73;;;;;;;;;;3574505;40;20417;-80
2021/07/16 06:29:22;;;;;;;23.43;12.63;;;;;;;;;;3560934;40;20415;-80
2021/07/16 06:31:49;;;;;;;25.23;11.40;;;;;;;;;;3568783;40;20471;-80
2021/07/16 06:34:16;;;;;;;26.20;11.57;;;;;;;;;;3568884;40;20413;-81
2021/07/16 06:36:42;;;;;;;21.03;12.27;;;;;;;;;;3569505;40;20781;-82
2021/07/16 06:39:10;;;;;;;15.37;10.93;;;;;;;;;;3555037;40;20742;-81
2021/07/16 06:41:36;;;;;;;25.03;12.80;;;;;;;;;;3553437;39;20701;-81
2021/07/16 06:44:02;;;;;;;22.83;11.67;;;;;;;;;;3568174;40;20408;-81
2021/07/16 06:46:28;;;;;;;20.73;12.57;;;;;;;;;;3580844;39;20463;-80
2021/07/16 06:48:54;;;;;;;18.23;10.90;;;;;;;;;;3588076;39;20833;-80
2021/07/16 06:51:21;;;;;;;15.73;11.00;;;;;;;;;;3580649;39;20403;-80
2021/07/16 06:53:47;;;;;;;28.13;12.30;;;;;;;;;;3580022;39;20407;-80
2021/07/16 06:56:13;;;;;;;24.90;11.60;;;;;;;;;;3579561;39;20404;-80
2021/07/16 06:58:39;;;;;;;30.03;10.93;;;;;;;;;;3580991;39;20407;-82
2021/07/16 07:01:06;;;;;;;18.60;10.07;;;;;;;;;;3572382;39;20735;-80
2021/07/16 07:03:32;;;;;;;24.60;11.30;;;;;;;;;;3589813;39;20391;-81
2021/07/16 07:05:58;;;;;;;17.93;10.07;;;;;;;;;;3576631;39;20409;-81
2021/07/16 07:08:24;;;;;;;24.60;10.60;;;;;;;;;;3592515;39;20426;-80
2021/07/16 07:10:50;;;;;;;18.47;10.63;;;;;;;;;;3609052;39;20411;-80
2021/07/16 07:13:17;;;;;;;15.50;10.70;;;;;;;;;;3610408;39;20386;-81
2021/07/16 07:15:43;;;;;;;19.07;9.73;;;;;;;;;;3594517;39;20373;-80
2021/07/16 07:18:09;;;;;;;19.63;9.53;;;;;;;;;;3600574;39;20447;-81
2021/07/16 07:20:36;;;;;;;17.23;10.13;;;;;;;;;;3609768;39;20406;-81
2021/07/16 07:23:03;;;;;;;18.10;9.53;;;;;;;;;;3592131;39;20406;-81
2021/07/16 07:25:30;;;;;;;14.20;8.70;;;;;;;;;;3610102;39;20407;-81
2021/07/16 07:28:29;;;;;;;21.27;9.47;;;;;;;;;;3600135;39;20406;-82
2021/07/16 07:31:05;;;;;;;12.77;9.13;;;;;;;;;;3573346;40;20520;-81
2021/07/16 07:34:11;;;;;;;16.90;9.87;;;;;;;;;;3565145;40;20417;-81
2021/07/16 07:37:34;;;;;;;14.13;9.00;;;;;;;;;;3527307;40;20506;-81
2021/07/16 07:40:19;;;;;;;21.03;9.63;;;;;;;;;;3539292;40;20940;-81
2021/07/16 07:42:46;;;;;;;19.43;9.60;;;;;;;;;;3551490;40;20736;-81
2021/07/16 07:45:13;;;;;;;16.70;10.13;;;;;;;;;;3535100;40;20452;-81
2021/07/16 07:47:39;;;;;;;30.60;9.57;;;;;;;;;;3541126;40;20423;-81
2021/07/16 07:50:32;;;;;;;18.90;10.87;;;;;;;;;;3543590;40;20736;-81
2021/07/16 07:53:33;;;;;;;17.67;12.10;;;;;;;;;;3550486;40;21579;-82
2021/07/16 07:56:08;;;;;;;14.97;10.50;;;;;;;;;;3551834;40;20391;-81
2021/07/16 07:58:48;;;;;;;16.00;9.03;;;;;;;;;;3543978;40;20412;-81
2021/07/16 08:01:41;;;;;;;17.13;9.93;;;;;;;;;;3543342;40;20416;-81
2021/07/16 08:04:43;;;;;;;23.47;9.93;;;;;;;;;;3543178;40;20431;-82
2021/07/16 08:07:13;;;;;;;13.53;9.50;;;;;;;;;;3518493;40;20364;-81
2021/07/16 08:09:51;;;;;;;21.07;10.93;;;;;;;;;;3529963;40;20436;-81
2021/07/16 08:12:22;;;;;;;17.07;9.37;;;;;;;;;;3533065;40;20610;-80
2021/07/16 08:14:51;;;;;;;16.47;10.13;;;;;;;;;;3565961;40;20437;-80
2021/07/16 08:17:20;;;;;;;13.20;9.90;;;;;;;;;;3556733;40;20406;-80
2021/07/16 08:20:17;;;;;;;18.07;9.33;;;;;;;;;;3553648;40;20403;-81
2021/07/16 08:23:15;;;;;;;12.60;9.27;;;;;;;;;;3565604;40;20478;-81
2021/07/16 08:25:56;;;;;;;8.83;7.97;;;;;;;;;;3547758;40;20419;-81
2021/07/16 08:28:26;;;;;;;15.63;8.83;;;;;;;;;;3556973;40;20388;-80
2021/07/16 08:30:53;;;;;;;15.73;9.07;;;;;;;;;;3556127;40;22228;-81
2021/07/16 08:33:21;;;;;;;14.33;9.20;;;;;;;;;;3558305;40;20412;-81
2021/07/16 08:35:54;;;;;;;12.80;7.40;;;;;;;;;;3556929;40;20427;-81
2021/07/16 08:38:31;;;;;;;15.00;8.07;;;;;;;;;;3548492;40;20403;-81
2021/07/16 08:41:01;;;;;;;11.53;7.80;;;;;;;;;;3584095;39;20423;-81
2021/07/16 08:43:50;;;;;;;18.23;9.37;;;;;;;;;;3569053;39;2316925;-81
2021/07/16 08:46:37;;;;;;;14.07;7.80;;;;;;;;;;3607214;39;20262;-82
2021/07/16 08:49:14;;;;;;;12.27;7.90;;;;;;;;;;3617979;39;20442;-81
2021/07/16 08:51:55;;;;;;;17.17;8.70;;;;;;;;;;3617554;39;21396;-81
2021/07/16 08:54:32;;;;;;;11.30;8.03;;;;;;;;;;3616430;39;20743;-81
2021/07/16 08:57:37;;;;;;;11.60;7.70;;;;;;;;;;3599266;39;20429;-81
2021/07/16 09:00:31;;;;;;;15.67;9.63;;;;;;;;;;3587075;39;20505;-82
2021/07/16 09:03:08;;;;;;;12.83;7.70;;;;;;;;;;3570083;40;20797;-81
2021/07/16 09:06:05;;;;;;;14.40;9.40;;;;;;;;;;3578110;39;20782;-82
2021/07/16 09:08:53;;;;;;;12.47;8.20;;;;;;;;;;3573324;40;20817;-82
2021/07/16 09:11:22;;;;;;;13.97;10.70;;;;;;;;;;3579780;40;20404;-80
2021/07/16 09:13:52;;;;;;;23.50;11.70;;;;;;;;;;3577394;39;20481;-81
2021/07/16 09:16:19;;;;;;;15.80;13.27;;;;;;;;;;3579714;40;20570;-81
2021/07/16 09:18:49;;;;;;;15.43;13.40;;;;;;;;;;3585204;39;20411;-81
2021/07/16 09:21:15;;;;;;;15.53;13.07;;;;;;;;;;3588726;39;20416;-80
2021/07/16 09:23:46;;;;;;;17.73;12.40;;;;;;;;;;3586659;39;21241;-80
2021/07/16 09:26:14;;;;;;;22.23;14.47;;;;;;;;;;3585699;40;20456;-80
2021/07/16 09:29:04;;;;;;;22.93;14.63;;;;;;;;;;3577374;40;20439;-80
2021/07/16 09:31:37;;;;;;;15.43;12.67;;;;;;;;;;3576857;40;20489;-80
2021/07/16 09:34:07;;;;;;;15.77;11.57;;;;;;;;;;3588537;39;20399;-81
2021/07/16 09:36:40;;;;;;;16.90;11.23;;;;;;;;;;3570668;39;20397;-81
2021/07/16 09:39:09;;;;;;;25.20;11.83;;;;;;;;;;3588455;39;20414;-81
2021/07/16 09:41:45;;;;;;;15.00;11.60;;;;;;;;;;3605216;39;20426;-80
2021/07/16 09:44:11;;;;;;;12.60;11.30;;;;;;;;;;3605519;39;20398;-80
2021/07/16 09:46:37;;;;;;;20.97;13.80;;;;;;;;;;3608972;39;20428;-80
2021/07/16 09:49:13;;;;;;;17.23;15.17;;;;;;;;;;3616511;39;20759;-80
2021/07/16 09:51:41;;;;;;;15.67;13.93;;;;;;;;;;3607181;39;20398;-80
2021/07/16 09:54:07;;;;;;;15.17;12.63;;;;;;;;;;3612263;39;21201;-80
2021/07/16 09:56:36;;;;;;;17.17;12.13;;;;;;;;;;3598856;39;20399;-81
2021/07/16 09:59:16;;;;;;;16.20;10.40;;;;;;;;;;3608449;39;20398;-80
2021/07/16 10:01:44;;;;;;;14.20;10.10;;;;;;;;;;3598407;39;20422;-80
2021/07/16 10:04:18;;;;;;;15.77;10.70;;;;;;;;;;3607731;39;20414;-80
2021/07/16 10:06:50;;;;;;;13.20;9.33;;;;;;;;;;3591445;39;20391;-80
2021/07/16 10:09:17;;;;;;;21.63;11.20;;;;;;;;;;3593129;39;21107;-80
2021/07/16 10:11:46;;;;;;;22.23;12.30;;;;;;;;;;3607858;39;20434;-80
2021/07/16 10:14:13;;;;;;;20.80;12.20;;;;;;;;;;3600293;39;20407;-80
2021/07/16 10:16:39;;;;;;;14.17;10.83;;;;;;;;;;3598348;39;20406;-80
2021/07/16 10:19:06;;;;;;;14.37;10.80;;;;;;;;;;3598738;39;21051;-80
2021/07/16 10:21:32;;;;;;;13.70;9.60;;;;;;;;;;3599004;39;21666;-80
2021/07/16 10:23:59;;;;;;;26.80;9.90;;;;;;;;;;3592633;39;20433;-80
2021/07/16 10:30:05;;;;;;;12.10;9.30;;;;;;;;;;3608786;39;20406;-80
2021/07/16 10:32:41;;;;;;;16.97;8.30;;;;;;;;;;3592183;39;20456;-79
2021/07/16 10:35:14;;;;;;;16.27;9.77;;;;;;;;;;3599766;39;20393;-79
2021/07/16 10:37:40;;;;;;;15.57;9.07;;;;;;;;;;3598547;39;20399;-80
2021/07/16 10:40:08;;;;;;;14.17;8.70;;;;;;;;;;3607148;39;20869;-80
2021/07/16 10:42:36;;;;;;;13.03;9.10;;;;;;;;;;3597821;39;20478;-79
2021/07/16 10:45:05;;;;;;;18.33;9.33;;;;;;;;;;3593775;39;20783;-79
2021/07/16 10:47:49;;;;;;;10.57;7.07;;;;;;;;;;3594471;39;20415;-80
2021/07/16 10:50:39;;;;;;;10.67;7.83;;;;;;;;;;3611060;39;20456;-80
2021/07/16 10:53:08;;;;;;;11.00;8.20;;;;;;;;;;3603937;39;20407;-80
2021/07/16 10:55:36;;;;;;;18.10;10.37;;;;;;;;;;3599893;39;20530;-80
2021/07/16 10:58:31;;;;;;;14.97;8.50;;;;;;;;;;3609151;39;20406;-80
2021/07/16 11:00:58;;;;;;;10.90;9.20;;;;;;;;;;3591271;39;20414;-80
2021/07/16 11:03:44;;;;;;;19.20;8.60;;;;;;;;;;3598254;39;20411;-80
2021/07/16 11:06:14;;;;;;;11.83;7.80;;;;;;;;;;3607469;39;21169;-80
2021/07/16 11:08:40;;;;;;;14.73;9.53;;;;;;;;;;3600112;39;20414;-80
2021/07/16 11:11:26;;;;;;;11.33;9.50;;;;;;;;;;3599391;39;20496;-80
2021/07/16 11:13:56;;;;;;;12.60;10.43;;;;;;;;;;3606441;39;20407;-80
2021/07/16 11:16:26;;;;;;;11.10;9.30;;;;;;;;;;3590524;39;20483;-80
2021/07/16 11:18:56;;;;;;;15.97;9.20;;;;;;;;;;3590335;39;20436;-79
2021/07/16 11:21:41;;;;;;;14.57;9.37;;;;;;;;;;3600172;39;20409;-80
2021/07/16 11:24:19;;;;;;;13.73;7.77;;;;;;;;;;3600149;39;20823;-80
2021/07/16 11:27:12;;;;;;;19.77;11.33;;;;;;;;;;3599610;39;20390;-80
2021/07/16 11:29:58;;;;;;;15.33;11.27;;;;;;;;;;3606424;39;20394;-80
2021/07/16 11:32:25;;;;;;;21.00;13.40;;;;;;;;;;3596808;39;20409;-80
2021/07/16 11:34:59;;;;;;;20.27;13.40;;;;;;;;;;3598682;39;20403;-80
2021/07/16 11:37:30;;;;;;;18.73;13.37;;;;;;;;;;3599512;39;20413;-79
2021/07/16 11:40:05;;;;;;;14.47;13.07;;;;;;;;;;3600468;39;20472;-79
2021/07/16 11:42:32;;;;;;;17.93;11.47;;;;;;;;;;3599184;39;20441;-79
2021/07/16 11:44:59;;;;;;;14.70;11.37;;;;;;;;;;3599141;39;20461;-80
2021/07/16 11:47:27;;;;;;;16.40;9.93;;;;;;;;;;3600358;39;21200;-81
2021/07/16 11:50:01;;;;;;;18.60;10.33;;;;;;;;;;3598738;39;20498;-80
2021/07/16 11:52:29;;;;;;;12.80;8.23;;;;;;;;;;3599028;39;20421;-80
2021/07/16 11:55:16;;;;;;;17.87;9.77;;;;;;;;;;3607073;39;20410;-80
2021/07/16 11:57:47;;;;;;;14.33;9.80;;;;;;;;;;3608338;39;20419;-80
2021/07/16 12:00:13;;;;;;;24.53;11.37;;;;;;;;;;3608113;39;20846;-81
2021/07/16 12:02:39;;;;;;;14.43;11.03;;;;;;;;;;3605465;39;20437;-80
2021/07/16 12:05:06;;;;;;;17.07;12.07;;;;;;;;;;3594008;39;20442;-81
2021/07/16 12:07:39;;;;;;;18.83;10.80;;;;;;;;;;3599285;39;20518;-80
2021/07/16 12:10:20;;;;;;;16.57;8.77;;;;;;;;;;3599618;39;20502;-80
2021/07/16 12:12:46;;;;;;;15.80;8.50;;;;;;;;;;3601078;39;20410;-80
2021/07/16 12:15:20;;;;;;;16.70;8.93;;;;;;;;;;3609297;39;20417;-80
2021/07/16 12:17:55;;;;;;;17.03;8.23;;;;;;;;;;3599635;39;20394;-80
2021/07/16 12:20:25;;;;;;;10.80;8.17;;;;;;;;;;3610073;39;21282;-80
2021/07/16 12:22:52;;;;;;;10.20;8.13;;;;;;;;;;3599066;39;20405;-81
2021/07/16 12:25:23;;;;;;;12.07;8.90;;;;;;;;;;3601597;39;20450;-81
2021/07/16 12:28:03;;;;;;;20.83;8.13;;;;;;;;;;3596470;39;20410;-82
2021/07/16 12:30:38;;;;;;;17.83;8.30;;;;;;;;;;3599456;39;20411;-81
2021/07/16 12:33:46;;;;;;;16.60;8.20;;;;;;;;;;3592569;39;20825;-81
2021/07/16 12:36:32;;;;;;;23.23;10.00;;;;;;;;;;3573084;40;20581;-81
2021/07/16 12:39:46;;;;;;;17.17;8.53;;;;;;;;;;3564504;40;20413;-81
2021/07/16 12:42:23;;;;;;;19.10;8.37;;;;;;;;;;3566257;40;20435;-82
2021/07/16 12:45:09;;;;;;;13.07;7.20;;;;;;;;;;3564694;40;20827;-81
2021/07/16 12:48:17;;;;;;;21.50;7.90;;;;;;;;;;3563479;40;20456;-81
2021/07/16 12:50:57;;;;;;;26.47;8.87;;;;;;;;;;3563193;40;20503;-81
2021/07/16 12:53:37;;;;;;;20.37;8.20;;;;;;;;;;3572639;40;20463;-81
2021/07/16 12:56:26;;;;;;;18.30;7.53;;;;;;;;;;3571490;40;20464;-83
2021/07/16 12:58:59;;;;;;;16.57;8.27;;;;;;;;;;3560817;40;20720;-80
2021/07/16 13:01:27;;;;;;;15.13;8.27;;;;;;;;;;3559805;40;20394;-80
2021/07/16 13:03:53;;;;;;;17.10;7.83;;;;;;;;;;3569048;40;20397;-80
2021/07/16 13:06:30;;;;;;;17.67;7.83;;;;;;;;;;3569010;40;20428;-80
2021/07/16 13:09:10;;;;;;;18.17;8.00;;;;;;;;;;3568985;40;20862;-80
2021/07/16 13:11:36;;;;;;;16.37;7.53;;;;;;;;;;3582732;39;20442;-79
2021/07/16 13:14:02;;;;;;;16.43;7.73;;;;;;;;;;3596592;39;20419;-79
2021/07/16 13:16:29;;;;;;;24.47;8.70;;;;;;;;;;3598552;39;20404;-79
2021/07/16 13:19:01;;;;;;;13.87;8.00;;;;;;;;;;3588841;39;20407;-79
2021/07/16 13:21:27;;;;;;;18.63;8.97;;;;;;;;;;3596572;39;20411;-79
2021/07/16 13:23:54;;;;;;;15.47;9.03;;;;;;;;;;3595071;39;20815;-79
2021/07/16 13:26:29;;;;;;;14.40;7.70;;;;;;;;;;3590388;39;20481;-80
2021/07/16 13:28:55;;;;;;;25.03;9.67;;;;;;;;;;3596341;39;20415;-80
2021/07/16 13:31:21;;;;;;;22.13;8.20;;;;;;;;;;3597649;39;20392;-80
2021/07/16 13:33:47;;;;;;;12.70;8.60;;;;;;;;;;3597136;39;20447;-80
2021/07/16 13:36:14;;;;;;;17.17;9.83;;;;;;;;;;3588380;39;20544;-79
2021/07/16 13:38:41;;;;;;;14.60;7.90;;;;;;;;;;3593414;39;20715;-80
2021/07/16 13:41:08;;;;;;;19.77;9.63;;;;;;;;;;3601391;39;20719;-79
2021/07/16 13:43:35;;;;;;;18.97;9.63;;;;;;;;;;3589896;39;20438;-79
2021/07/16 13:46:01;;;;;;;16.00;10.43;;;;;;;;;;3608156;39;20422;-80
2021/07/16 13:48:27;;;;;;;18.43;10.67;;;;;;;;;;3591895;39;20429;-81
2021/07/16 13:50:54;;;;;;;13.10;8.70;;;;;;;;;;3607279;39;20503;-79
2021/07/16 13:53:22;;;;;;;18.73;9.43;;;;;;;;;;3610945;39;20449;-80
2021/07/16 13:55:50;;;;;;;17.93;11.17;;;;;;;;;;3607984;39;20430;-79
2021/07/16 13:58:16;;;;;;;16.03;9.00;;;;;;;;;;3609256;39;20835;-79
2021/07/16 14:00:42;;;;;;;16.53;8.67;;;;;;;;;;3599060;39;20505;-79
2021/07/16 14:03:09;;;;;;;22.57;9.87;;;;;;;;;;3598870;39;20402;-79
2021/07/16 14:05:35;;;;;;;19.50;9.27;;;;;;;;;;3607369;39;20475;-81
2021/07/16 14:08:02;;;;;;;14.63;8.67;;;;;;;;;;3601146;39;20413;-80
2021/07/16 14:10:28;;;;;;;16.17;8.50;;;;;;;;;;3600011;39;20426;-80
2021/07/16 14:12:54;;;;;;;19.03;8.67;;;;;;;;;;3609704;39;20422;-79
2021/07/16 14:15:21;;;;;;;21.13;8.80;;;;;;;;;;3599931;39;20410;-80
2021/07/16 14:17:51;;;;;;;14.50;9.33;;;;;;;;;;3600515;39;20418;-79
2021/07/16 14:20:17;;;;;;;14.43;8.17;;;;;;;;;;3598716;39;20401;-80
2021/07/16 14:22:43;;;;;;;14.33;8.20;;;;;;;;;;3598515;39;20402;-80
2021/07/16 14:25:10;;;;;;;15.67;8.70;;;;;;;;;;3599876;39;20460;-80
2021/07/16 14:27:38;;;;;;;12.70;8.33;;;;;;;;;;3608902;39;20398;-80
2021/07/16 14:30:06;;;;;;;21.90;7.50;;;;;;;;;;3604007;39;20486;-80
2021/07/16 14:32:33;;;;;;;11.03;8.70;;;;;;;;;;3590620;39;20402;-81
2021/07/16 14:34:59;;;;;;;14.13;7.67;;;;;;;;;;3606231;39;20755;-81
2021/07/16 14:37:25;;;;;;;11.17;7.97;;;;;;;;;;3594277;39;20411;-80
2021/07/16 14:39:52;;;;;;;10.93;6.60;;;;;;;;;;3599138;39;20391;-80
2021/07/16 14:42:18;;;;;;;17.90;9.30;;;;;;;;;;3607792;39;20433;-80
2021/07/16 14:44:45;;;;;;;9.90;7.30;;;;;;;;;;3596039;39;20553;-78
2021/07/16 14:47:11;;;;;;;12.27;6.70;;;;;;;;;;3602587;39;20420;-79
2021/07/16 14:49:38;;;;;;;10.93;7.70;;;;;;;;;;3599402;39;21139;-79
2021/07/16 14:52:04;;;;;;;14.33;7.97;;;;;;;;;;3599723;39;20446;-80